sensor_id;sensor_type;location;lat;lon;timestamp;P1;durP1;ratioP1;P2;durP2;ratioP2
51907;SDS011;39320;53.214;6.556;2023-04-08T00:01:07;4.68;;;4.28;;
51907;SDS011;39320;53.214;6.556;2023-04-08T00:03:33;4.93;;;4.53;;
51907;SDS011;39320;53.214;6.556;2023-04-08T00:05:59;4.95;;;4.55;;
51907;SDS011;39320;53.214;6.556;2023-04-08T00:08:27;5.13;;;4.63;;
51907;SDS011;39320;53.214;6.556;2023-04-08T00:10:53;6.15;;;5.60;;
51907;SDS011;39320;53.214;6.556;2023-04-08T00:13:19;5.15;;;4.72;;
51907;SDS011;39320;53.214;6.556;2023-04-08T00:15:45;5.70;;;5.20;;
51907;SDS011;39320;53.214;6.556;2023-04-08T00:18:12;5.22;;;4.75;;
51907;SDS011;39320;53.214;6.556;2023-04-08T00:20:39;6.40;;;5.80;;
51907;SDS011;39320;53.214;6.556;2023-04-08T00:23:06;6.57;;;5.97;;
51907;SDS011;39320;53.214;6.556;2023-04-08T00:25:32;6.03;;;5.55;;
51907;SDS011;39320;53.214;6.556;2023-04-08T00:27:58;6.00;;;5.40;;
51907;SDS011;39320;53.214;6.556;2023-04-08T00:30:24;6.30;;;5.70;;
51907;SDS011;39320;53.214;6.556;2023-04-08T00:32:51;5.47;;;5.00;;
51907;SDS011;39320;53.214;6.556;2023-04-08T00:35:17;6.03;;;5.47;;
51907;SDS011;39320;53.214;6.556;2023-04-08T00:37:42;5.25;;;4.75;;
51907;SDS011;39320;53.214;6.556;2023-04-08T00:40:08;5.78;;;5.18;;
51907;SDS011;39320;53.214;6.556;2023-04-08T00:42:35;5.15;;;4.65;;
51907;SDS011;39320;53.214;6.556;2023-04-08T00:45:00;6.38;;;5.18;;
51907;SDS011;39320;53.214;6.556;2023-04-08T00:47:29;5.75;;;5.25;;
51907;SDS011;39320;53.214;6.556;2023-04-08T00:49:55;6.05;;;5.55;;
51907;SDS011;39320;53.214;6.556;2023-04-08T00:52:21;6.20;;;5.57;;
51907;SDS011;39320;53.214;6.556;2023-04-08T00:54:47;5.78;;;5.28;;
51907;SDS011;39320;53.214;6.556;2023-04-08T00:57:13;6.07;;;5.47;;
51907;SDS011;39320;53.214;6.556;2023-04-08T00:59:39;6.22;;;5.72;;
51907;SDS011;39320;53.214;6.556;2023-04-08T01:09:56;6.03;;;5.53;;
51907;SDS011;39320;53.214;6.556;2023-04-08T01:12:28;6.63;;;6.03;;
51907;SDS011;39320;53.214;6.556;2023-04-08T01:14:58;6.00;;;4.95;;
51907;SDS011;39320;53.214;6.556;2023-04-08T01:17:29;6.35;;;5.47;;
51907;SDS011;39320;53.214;6.556;2023-04-08T01:19:56;6.00;;;5.43;;
51907;SDS011;39320;53.214;6.556;2023-04-08T01:24:56;6.43;;;5.93;;
51907;SDS011;39320;53.214;6.556;2023-04-08T01:27:27;5.97;;;5.47;;
51907;SDS011;39320;53.214;6.556;2023-04-08T01:29:56;6.88;;;6.28;;
51907;SDS011;39320;53.214;6.556;2023-04-08T01:32:24;5.85;;;5.22;;
51907;SDS011;39320;53.214;6.556;2023-04-08T01:34:51;7.38;;;6.68;;
51907;SDS011;39320;53.214;6.556;2023-04-08T01:37:18;7.15;;;6.55;;
51907;SDS011;39320;53.214;6.556;2023-04-08T01:39:46;6.35;;;5.85;;
51907;SDS011;39320;53.214;6.556;2023-04-08T01:42:13;6.55;;;5.95;;
51907;SDS011;39320;53.214;6.556;2023-04-08T01:44:43;7.25;;;6.55;;
51907;SDS011;39320;53.214;6.556;2023-04-08T01:47:10;7.45;;;6.75;;
51907;SDS011;39320;53.214;6.556;2023-04-08T01:49:38;8.48;;;6.40;;
51907;SDS011;39320;53.214;6.556;2023-04-08T01:52:04;6.93;;;6.32;;
51907;SDS011;39320;53.214;6.556;2023-04-08T01:54:31;7.10;;;6.30;;
51907;SDS011;39320;53.214;6.556;2023-04-08T01:56:59;7.53;;;6.88;;
51907;SDS011;39320;53.214;6.556;2023-04-08T01:59:30;7.78;;;6.97;;
51907;SDS011;39320;53.214;6.556;2023-04-08T02:02:01;6.93;;;6.35;;
51907;SDS011;39320;53.214;6.556;2023-04-08T02:04:29;7.28;;;6.63;;
51907;SDS011;39320;53.214;6.556;2023-04-08T02:06:58;8.20;;;7.50;;
51907;SDS011;39320;53.214;6.556;2023-04-08T02:09:26;8.73;;;7.93;;
51907;SDS011;39320;53.214;6.556;2023-04-08T02:11:52;7.28;;;6.68;;
51907;SDS011;39320;53.214;6.556;2023-04-08T02:14:18;8.10;;;7.30;;
51907;SDS011;39320;53.214;6.556;2023-04-08T02:16:52;7.47;;;6.88;;
51907;SDS011;39320;53.214;6.556;2023-04-08T02:19:24;7.97;;;7.28;;
51907;SDS011;39320;53.214;6.556;2023-04-08T02:21:54;7.15;;;6.55;;
51907;SDS011;39320;53.214;6.556;2023-04-08T02:24:26;6.88;;;6.22;;
51907;SDS011;39320;53.214;6.556;2023-04-08T02:26:53;8.10;;;7.40;;
51907;SDS011;39320;53.214;6.556;2023-04-08T02:29:20;7.65;;;6.95;;
51907;SDS011;39320;53.214;6.556;2023-04-08T02:31:47;7.43;;;6.82;;
51907;SDS011;39320;53.214;6.556;2023-04-08T02:34:15;8.35;;;7.57;;
51907;SDS011;39320;53.214;6.556;2023-04-08T02:36:43;8.48;;;7.78;;
51907;SDS011;39320;53.214;6.556;2023-04-08T02:39:11;8.18;;;7.38;;
51907;SDS011;39320;53.214;6.556;2023-04-08T02:41:37;8.15;;;7.35;;
51907;SDS011;39320;53.214;6.556;2023-04-08T02:44:02;8.73;;;7.93;;
51907;SDS011;39320;53.214;6.556;2023-04-08T02:46:28;8.60;;;7.88;;
51907;SDS011;39320;53.214;6.556;2023-04-08T02:48:54;8.93;;;8.23;;
51907;SDS011;39320;53.214;6.556;2023-04-08T02:51:20;8.30;;;7.50;;
51907;SDS011;39320;53.214;6.556;2023-04-08T02:53:46;8.85;;;8.02;;
51907;SDS011;39320;53.214;6.556;2023-04-08T02:56:11;8.32;;;7.53;;
51907;SDS011;39320;53.214;6.556;2023-04-08T02:58:37;9.40;;;8.60;;
51907;SDS011;39320;53.214;6.556;2023-04-08T03:01:03;8.82;;;8.10;;
51907;SDS011;39320;53.214;6.556;2023-04-08T03:03:29;9.25;;;8.35;;
51907;SDS011;39320;53.214;6.556;2023-04-08T03:05:55;8.93;;;8.13;;
51907;SDS011;39320;53.214;6.556;2023-04-08T03:08:21;8.75;;;8.05;;
51907;SDS011;39320;53.214;6.556;2023-04-08T03:10:47;8.63;;;7.88;;
51907;SDS011;39320;53.214;6.556;2023-04-08T03:13:14;8.73;;;8.07;;
51907;SDS011;39320;53.214;6.556;2023-04-08T03:15:40;9.73;;;8.82;;
51907;SDS011;39320;53.214;6.556;2023-04-08T03:18:06;8.10;;;7.40;;
51907;SDS011;39320;53.214;6.556;2023-04-08T03:20:32;8.02;;;7.40;;
51907;SDS011;39320;53.214;6.556;2023-04-08T03:22:58;8.95;;;8.25;;
51907;SDS011;39320;53.214;6.556;2023-04-08T03:25:23;8.63;;;7.93;;
51907;SDS011;39320;53.214;6.556;2023-04-08T03:27:53;8.80;;;7.93;;
51907;SDS011;39320;53.214;6.556;2023-04-08T03:30:19;9.30;;;8.48;;
51907;SDS011;39320;53.214;6.556;2023-04-08T03:32:45;9.60;;;8.60;;
51907;SDS011;39320;53.214;6.556;2023-04-08T03:35:10;8.48;;;7.78;;
51907;SDS011;39320;53.214;6.556;2023-04-08T03:37:36;9.48;;;8.57;;
51907;SDS011;39320;53.214;6.556;2023-04-08T03:40:02;9.43;;;8.70;;
51907;SDS011;39320;53.214;6.556;2023-04-08T03:42:29;9.65;;;8.75;;
51907;SDS011;39320;53.214;6.556;2023-04-08T03:44:55;9.27;;;8.48;;
51907;SDS011;39320;53.214;6.556;2023-04-08T03:47:21;9.30;;;8.60;;
51907;SDS011;39320;53.214;6.556;2023-04-08T03:49:47;9.77;;;8.98;;
51907;SDS011;39320;53.214;6.556;2023-04-08T03:52:12;9.23;;;8.32;;
51907;SDS011;39320;53.214;6.556;2023-04-08T03:54:38;10.23;;;9.32;;
51907;SDS011;39320;53.214;6.556;2023-04-08T03:57:04;9.85;;;8.93;;
51907;SDS011;39320;53.214;6.556;2023-04-08T03:59:29;10.70;;;9.70;;
51907;SDS011;39320;53.214;6.556;2023-04-08T04:01:57;8.90;;;8.10;;
51907;SDS011;39320;53.214;6.556;2023-04-08T04:04:23;10.57;;;9.50;;
51907;SDS011;39320;53.214;6.556;2023-04-08T04:06:49;10.52;;;9.48;;
51907;SDS011;39320;53.214;6.556;2023-04-08T04:09:15;9.20;;;8.40;;
51907;SDS011;39320;53.214;6.556;2023-04-08T04:11:40;10.40;;;9.48;;
51907;SDS011;39320;53.214;6.556;2023-04-08T04:14:06;10.18;;;9.38;;
51907;SDS011;39320;53.214;6.556;2023-04-08T04:16:32;9.75;;;8.88;;
51907;SDS011;39320;53.214;6.556;2023-04-08T04:18:58;11.15;;;10.15;;
51907;SDS011;39320;53.214;6.556;2023-04-08T04:21:24;9.77;;;8.93;;
51907;SDS011;39320;53.214;6.556;2023-04-08T04:23:49;11.00;;;10.00;;
51907;SDS011;39320;53.214;6.556;2023-04-08T04:26:15;10.35;;;9.45;;
51907;SDS011;39320;53.214;6.556;2023-04-08T04:28:41;10.95;;;9.95;;
51907;SDS011;39320;53.214;6.556;2023-04-08T04:31:07;10.40;;;9.50;;
51907;SDS011;39320;53.214;6.556;2023-04-08T04:33:32;10.25;;;9.35;;
51907;SDS011;39320;53.214;6.556;2023-04-08T04:35:58;9.52;;;8.65;;
51907;SDS011;39320;53.214;6.556;2023-04-08T04:38:24;9.95;;;9.07;;
51907;SDS011;39320;53.214;6.556;2023-04-08T04:40:51;10.75;;;9.75;;
51907;SDS011;39320;53.214;6.556;2023-04-08T04:43:17;9.95;;;9.15;;
51907;SDS011;39320;53.214;6.556;2023-04-08T04:45:42;10.52;;;9.48;;
51907;SDS011;39320;53.214;6.556;2023-04-08T04:48:09;9.80;;;9.00;;
51907;SDS011;39320;53.214;6.556;2023-04-08T04:50:35;10.80;;;9.88;;
51907;SDS011;39320;53.214;6.556;2023-04-08T04:53:00;10.80;;;9.75;;
51907;SDS011;39320;53.214;6.556;2023-04-08T04:55:26;10.20;;;9.30;;
51907;SDS011;39320;53.214;6.556;2023-04-08T04:57:52;11.23;;;10.13;;
51907;SDS011;39320;53.214;6.556;2023-04-08T05:00:18;10.43;;;9.45;;
51907;SDS011;39320;53.214;6.556;2023-04-08T05:02:44;11.18;;;10.13;;
51907;SDS011;39320;53.214;6.556;2023-04-08T05:05:10;10.52;;;9.43;;
51907;SDS011;39320;53.214;6.556;2023-04-08T05:07:36;10.18;;;9.30;;
51907;SDS011;39320;53.214;6.556;2023-04-08T05:10:03;11.48;;;10.48;;
51907;SDS011;39320;53.214;6.556;2023-04-08T05:12:30;10.85;;;9.90;;
51907;SDS011;39320;53.214;6.556;2023-04-08T05:14:59;10.63;;;9.73;;
51907;SDS011;39320;53.214;6.556;2023-04-08T05:17:27;10.40;;;9.40;;
51907;SDS011;39320;53.214;6.556;2023-04-08T05:19:53;10.30;;;9.30;;
51907;SDS011;39320;53.214;6.556;2023-04-08T05:22:19;11.50;;;10.50;;
51907;SDS011;39320;53.214;6.556;2023-04-08T05:24:45;11.82;;;10.73;;
51907;SDS011;39320;53.214;6.556;2023-04-08T05:27:10;10.93;;;9.82;;
51907;SDS011;39320;53.214;6.556;2023-04-08T05:29:36;10.98;;;9.88;;
51907;SDS011;39320;53.214;6.556;2023-04-08T05:32:05;12.32;;;11.23;;
51907;SDS011;39320;53.214;6.556;2023-04-08T05:34:31;11.98;;;10.80;;
51907;SDS011;39320;53.214;6.556;2023-04-08T05:36:57;11.63;;;10.55;;
51907;SDS011;39320;53.214;6.556;2023-04-08T05:39:23;11.85;;;10.77;;
51907;SDS011;39320;53.214;6.556;2023-04-08T05:41:48;11.43;;;10.32;;
51907;SDS011;39320;53.214;6.556;2023-04-08T05:44:14;11.30;;;10.30;;
51907;SDS011;39320;53.214;6.556;2023-04-08T05:46:40;11.95;;;10.85;;
51907;SDS011;39320;53.214;6.556;2023-04-08T05:49:06;11.40;;;10.40;;
51907;SDS011;39320;53.214;6.556;2023-04-08T05:51:32;12.73;;;11.48;;
51907;SDS011;39320;53.214;6.556;2023-04-08T05:53:58;11.18;;;10.18;;
51907;SDS011;39320;53.214;6.556;2023-04-08T05:56:24;11.57;;;10.48;;
51907;SDS011;39320;53.214;6.556;2023-04-08T05:58:50;11.85;;;10.75;;
51907;SDS011;39320;53.214;6.556;2023-04-08T06:01:15;11.55;;;10.55;;
51907;SDS011;39320;53.214;6.556;2023-04-08T06:03:41;12.00;;;10.90;;
51907;SDS011;39320;53.214;6.556;2023-04-08T06:06:10;11.20;;;10.18;;
51907;SDS011;39320;53.214;6.556;2023-04-08T06:08:36;11.13;;;10.13;;
51907;SDS011;39320;53.214;6.556;2023-04-08T06:11:02;11.05;;;10.05;;
51907;SDS011;39320;53.214;6.556;2023-04-08T06:13:31;11.35;;;10.18;;
51907;SDS011;39320;53.214;6.556;2023-04-08T06:15:56;10.50;;;9.50;;
51907;SDS011;39320;53.214;6.556;2023-04-08T06:18:22;10.32;;;9.43;;
51907;SDS011;39320;53.214;6.556;2023-04-08T06:20:48;12.68;;;11.38;;
51907;SDS011;39320;53.214;6.556;2023-04-08T06:23:15;10.63;;;9.57;;
51907;SDS011;39320;53.214;6.556;2023-04-08T06:25:41;10.73;;;9.63;;
51907;SDS011;39320;53.214;6.556;2023-04-08T06:28:10;11.00;;;9.65;;
51907;SDS011;39320;53.214;6.556;2023-04-08T06:30:35;9.73;;;8.98;;
51907;SDS011;39320;53.214;6.556;2023-04-08T06:33:01;10.35;;;9.45;;
51907;SDS011;39320;53.214;6.556;2023-04-08T06:35:27;10.05;;;9.13;;
51907;SDS011;39320;53.214;6.556;2023-04-08T06:37:53;9.60;;;8.77;;
51907;SDS011;39320;53.214;6.556;2023-04-08T06:40:18;10.68;;;9.68;;
51907;SDS011;39320;53.214;6.556;2023-04-08T06:42:44;8.73;;;7.93;;
51907;SDS011;39320;53.214;6.556;2023-04-08T06:45:10;9.15;;;8.35;;
51907;SDS011;39320;53.214;6.556;2023-04-08T06:47:36;9.40;;;8.55;;
51907;SDS011;39320;53.214;6.556;2023-04-08T06:50:01;8.48;;;7.68;;
51907;SDS011;39320;53.214;6.556;2023-04-08T06:52:27;8.90;;;8.00;;
51907;SDS011;39320;53.214;6.556;2023-04-08T06:54:53;8.25;;;7.45;;
51907;SDS011;39320;53.214;6.556;2023-04-08T06:57:19;9.25;;;8.32;;
51907;SDS011;39320;53.214;6.556;2023-04-08T06:59:44;8.73;;;7.93;;
51907;SDS011;39320;53.214;6.556;2023-04-08T07:02:10;9.80;;;8.90;;
51907;SDS011;39320;53.214;6.556;2023-04-08T07:04:39;8.35;;;7.57;;
51907;SDS011;39320;53.214;6.556;2023-04-08T07:07:07;9.32;;;8.23;;
51907;SDS011;39320;53.214;6.556;2023-04-08T07:09:33;8.80;;;8.00;;
51907;SDS011;39320;53.214;6.556;2023-04-08T07:12:01;8.98;;;8.10;;
51907;SDS011;39320;53.214;6.556;2023-04-08T07:14:28;8.15;;;7.45;;
51907;SDS011;39320;53.214;6.556;2023-04-08T07:16:54;8.57;;;7.75;;
51907;SDS011;39320;53.214;6.556;2023-04-08T07:19:20;8.57;;;7.80;;
51907;SDS011;39320;53.214;6.556;2023-04-08T07:21:48;7.95;;;7.22;;
51907;SDS011;39320;53.214;6.556;2023-04-08T07:24:14;8.38;;;7.65;;
51907;SDS011;39320;53.214;6.556;2023-04-08T07:26:40;8.82;;;7.93;;
51907;SDS011;39320;53.214;6.556;2023-04-08T07:29:06;8.68;;;7.78;;
51907;SDS011;39320;53.214;6.556;2023-04-08T07:31:32;8.18;;;7.38;;
51907;SDS011;39320;53.214;6.556;2023-04-08T07:33:58;7.60;;;7.00;;
51907;SDS011;39320;53.214;6.556;2023-04-08T07:36:24;7.53;;;6.90;;
51907;SDS011;39320;53.214;6.556;2023-04-08T07:38:50;7.38;;;6.50;;
51907;SDS011;39320;53.214;6.556;2023-04-08T07:41:16;7.55;;;6.82;;
51907;SDS011;39320;53.214;6.556;2023-04-08T07:43:45;7.40;;;6.70;;
51907;SDS011;39320;53.214;6.556;2023-04-08T07:46:11;8.35;;;7.55;;
51907;SDS011;39320;53.214;6.556;2023-04-08T07:48:40;7.50;;;6.80;;
51907;SDS011;39320;53.214;6.556;2023-04-08T07:51:06;7.20;;;6.60;;
51907;SDS011;39320;53.214;6.556;2023-04-08T07:53:33;8.10;;;7.40;;
51907;SDS011;39320;53.214;6.556;2023-04-08T07:55:59;7.97;;;7.28;;
51907;SDS011;39320;53.214;6.556;2023-04-08T07:58:28;7.68;;;7.00;;
51907;SDS011;39320;53.214;6.556;2023-04-08T08:00:54;7.18;;;6.45;;
51907;SDS011;39320;53.214;6.556;2023-04-08T08:03:27;7.25;;;6.55;;
51907;SDS011;39320;53.214;6.556;2023-04-08T08:05:53;7.63;;;7.00;;
51907;SDS011;39320;53.214;6.556;2023-04-08T08:08:19;7.60;;;6.90;;
51907;SDS011;39320;53.214;6.556;2023-04-08T08:10:45;7.75;;;7.05;;
51907;SDS011;39320;53.214;6.556;2023-04-08T08:13:11;7.47;;;6.78;;
51907;SDS011;39320;53.214;6.556;2023-04-08T08:15:41;7.30;;;6.60;;
51907;SDS011;39320;53.214;6.556;2023-04-08T08:18:06;7.78;;;7.07;;
51907;SDS011;39320;53.214;6.556;2023-04-08T08:20:34;7.30;;;6.60;;
51907;SDS011;39320;53.214;6.556;2023-04-08T08:23:00;8.68;;;7.88;;
51907;SDS011;39320;53.214;6.556;2023-04-08T08:25:26;7.43;;;6.68;;
51907;SDS011;39320;53.214;6.556;2023-04-08T08:27:52;7.78;;;7.07;;
51907;SDS011;39320;53.214;6.556;2023-04-08T08:30:19;7.53;;;6.82;;
51907;SDS011;39320;53.214;6.556;2023-04-08T08:32:46;7.53;;;6.82;;
51907;SDS011;39320;53.214;6.556;2023-04-08T08:35:12;7.40;;;6.80;;
51907;SDS011;39320;53.214;6.556;2023-04-08T08:37:38;8.13;;;7.43;;
51907;SDS011;39320;53.214;6.556;2023-04-08T08:40:04;7.47;;;6.78;;
51907;SDS011;39320;53.214;6.556;2023-04-08T08:42:31;8.02;;;7.20;;
51907;SDS011;39320;53.214;6.556;2023-04-08T08:44:56;7.90;;;7.20;;
51907;SDS011;39320;53.214;6.556;2023-04-08T08:47:25;7.80;;;7.10;;
51907;SDS011;39320;53.214;6.556;2023-04-08T08:49:51;8.73;;;7.93;;
51907;SDS011;39320;53.214;6.556;2023-04-08T08:52:17;8.98;;;8.18;;
51907;SDS011;39320;53.214;6.556;2023-04-08T08:54:43;8.70;;;7.90;;
51907;SDS011;39320;53.214;6.556;2023-04-08T08:57:19;8.82;;;7.97;;
51907;SDS011;39320;53.214;6.556;2023-04-08T08:59:45;8.25;;;7.45;;
51907;SDS011;39320;53.214;6.556;2023-04-08T09:04:57;8.70;;;7.90;;
51907;SDS011;39320;53.214;6.556;2023-04-08T09:07:25;8.88;;;8.02;;
51907;SDS011;39320;53.214;6.556;2023-04-08T09:09:52;8.50;;;7.70;;
51907;SDS011;39320;53.214;6.556;2023-04-08T09:12:20;8.80;;;8.00;;
51907;SDS011;39320;53.214;6.556;2023-04-08T09:14:46;9.30;;;8.40;;
51907;SDS011;39320;53.214;6.556;2023-04-08T09:17:13;8.60;;;7.80;;
51907;SDS011;39320;53.214;6.556;2023-04-08T09:19:44;8.32;;;7.53;;
51907;SDS011;39320;53.214;6.556;2023-04-08T09:22:33;8.43;;;7.65;;
51907;SDS011;39320;53.214;6.556;2023-04-08T09:25:28;7.38;;;6.68;;
51907;SDS011;39320;53.214;6.556;2023-04-08T09:27:57;8.57;;;7.78;;
51907;SDS011;39320;53.214;6.556;2023-04-08T09:30:23;8.50;;;7.70;;
51907;SDS011;39320;53.214;6.556;2023-04-08T09:32:51;8.45;;;7.65;;
51907;SDS011;39320;53.214;6.556;2023-04-08T09:35:21;7.25;;;6.65;;
51907;SDS011;39320;53.214;6.556;2023-04-08T09:37:49;7.45;;;6.60;;
51907;SDS011;39320;53.214;6.556;2023-04-08T09:40:16;7.20;;;6.60;;
51907;SDS011;39320;53.214;6.556;2023-04-08T09:42:46;6.93;;;6.25;;
51907;SDS011;39320;53.214;6.556;2023-04-08T09:45:15;7.90;;;6.72;;
51907;SDS011;39320;53.214;6.556;2023-04-08T09:48:03;7.57;;;6.88;;
51907;SDS011;39320;53.214;6.556;2023-04-08T09:50:35;7.85;;;7.15;;
51907;SDS011;39320;53.214;6.556;2023-04-08T09:53:13;8.50;;;7.70;;
51907;SDS011;39320;53.214;6.556;2023-04-08T09:55:52;8.23;;;7.03;;
51907;SDS011;39320;53.214;6.556;2023-04-08T09:58:21;8.73;;;7.85;;
51907;SDS011;39320;53.214;6.556;2023-04-08T10:00:53;8.05;;;7.35;;
51907;SDS011;39320;53.214;6.556;2023-04-08T10:03:26;8.38;;;7.57;;
51907;SDS011;39320;53.214;6.556;2023-04-08T10:05:57;8.75;;;7.85;;
51907;SDS011;39320;53.214;6.556;2023-04-08T10:08:29;8.70;;;7.55;;
51907;SDS011;39320;53.214;6.556;2023-04-08T10:10:57;8.13;;;7.32;;
51907;SDS011;39320;53.214;6.556;2023-04-08T10:13:23;9.00;;;7.32;;
51907;SDS011;39320;53.214;6.556;2023-04-08T10:16:06;9.15;;;8.25;;
51907;SDS011;39320;53.214;6.556;2023-04-08T10:18:41;8.75;;;7.95;;
51907;SDS011;39320;53.214;6.556;2023-04-08T10:24:01;7.47;;;6.78;;
51907;SDS011;39320;53.214;6.556;2023-04-08T10:26:31;8.70;;;7.90;;
51907;SDS011;39320;53.214;6.556;2023-04-08T10:31:46;8.75;;;7.85;;
51907;SDS011;39320;53.214;6.556;2023-04-08T10:36:46;8.38;;;7.57;;
51907;SDS011;39320;53.214;6.556;2023-04-08T10:39:15;9.80;;;8.98;;
51907;SDS011;39320;53.214;6.556;2023-04-08T10:41:43;8.48;;;7.65;;
51907;SDS011;39320;53.214;6.556;2023-04-08T10:44:20;9.48;;;8.48;;
51907;SDS011;39320;53.214;6.556;2023-04-08T10:46:47;9.88;;;8.82;;
51907;SDS011;39320;53.214;6.556;2023-04-08T10:49:14;8.75;;;7.72;;
51907;SDS011;39320;53.214;6.556;2023-04-08T10:51:42;8.50;;;7.65;;
51907;SDS011;39320;53.214;6.556;2023-04-08T10:54:12;9.73;;;8.82;;
51907;SDS011;39320;53.214;6.556;2023-04-08T10:56:46;10.05;;;8.85;;
51907;SDS011;39320;53.214;6.556;2023-04-08T10:59:15;10.10;;;9.18;;
51907;SDS011;39320;53.214;6.556;2023-04-08T11:01:51;9.50;;;8.50;;
51907;SDS011;39320;53.214;6.556;2023-04-08T11:04:17;9.18;;;8.27;;
51907;SDS011;39320;53.214;6.556;2023-04-08T11:06:47;11.02;;;9.10;;
51907;SDS011;39320;53.214;6.556;2023-04-08T11:09:14;11.05;;;9.90;;
51907;SDS011;39320;53.214;6.556;2023-04-08T11:11:43;10.70;;;9.30;;
51907;SDS011;39320;53.214;6.556;2023-04-08T11:14:10;11.63;;;9.60;;
51907;SDS011;39320;53.214;6.556;2023-04-08T11:16:37;11.98;;;9.88;;
51907;SDS011;39320;53.214;6.556;2023-04-08T11:19:04;11.88;;;10.00;;
51907;SDS011;39320;53.214;6.556;2023-04-08T11:21:31;11.32;;;10.23;;
51907;SDS011;39320;53.214;6.556;2023-04-08T11:23:59;12.45;;;10.82;;
51907;SDS011;39320;53.214;6.556;2023-04-08T11:26:25;11.88;;;10.75;;
51907;SDS011;39320;53.214;6.556;2023-04-08T11:28:52;13.05;;;10.95;;
51907;SDS011;39320;53.214;6.556;2023-04-08T11:31:20;11.70;;;10.55;;
51907;SDS011;39320;53.214;6.556;2023-04-08T11:33:47;13.32;;;11.48;;
51907;SDS011;39320;53.214;6.556;2023-04-08T11:36:14;14.05;;;10.93;;
51907;SDS011;39320;53.214;6.556;2023-04-08T11:38:42;13.25;;;11.85;;
51907;SDS011;39320;53.214;6.556;2023-04-08T11:41:08;14.88;;;9.73;;
51907;SDS011;39320;53.214;6.556;2023-04-08T11:43:35;11.38;;;10.23;;
51907;SDS011;39320;53.214;6.556;2023-04-08T11:46:11;12.20;;;10.90;;
51907;SDS011;39320;53.214;6.556;2023-04-08T11:51:04;11.55;;;9.80;;
51907;SDS011;39320;53.214;6.556;2023-04-08T11:53:34;11.32;;;9.35;;
51907;SDS011;39320;53.214;6.556;2023-04-08T11:56:16;12.95;;;10.02;;
51907;SDS011;39320;53.214;6.556;2023-04-08T11:58:42;11.48;;;10.35;;
51907;SDS011;39320;53.214;6.556;2023-04-08T12:01:08;13.23;;;11.80;;
51907;SDS011;39320;53.214;6.556;2023-04-08T12:03:34;11.35;;;10.15;;
51907;SDS011;39320;53.214;6.556;2023-04-08T12:06:00;11.52;;;10.35;;
51907;SDS011;39320;53.214;6.556;2023-04-08T12:08:26;11.70;;;9.95;;
51907;SDS011;39320;53.214;6.556;2023-04-08T12:10:52;12.15;;;11.00;;
51907;SDS011;39320;53.214;6.556;2023-04-08T12:13:18;12.98;;;11.65;;
51907;SDS011;39320;53.214;6.556;2023-04-08T12:15:44;12.02;;;10.93;;
51907;SDS011;39320;53.214;6.556;2023-04-08T12:18:10;13.45;;;12.07;;
51907;SDS011;39320;53.214;6.556;2023-04-08T12:20:36;13.73;;;12.23;;
51907;SDS011;39320;53.214;6.556;2023-04-08T12:23:02;12.18;;;10.80;;
51907;SDS011;39320;53.214;6.556;2023-04-08T12:25:28;10.93;;;9.88;;
51907;SDS011;39320;53.214;6.556;2023-04-08T12:27:55;11.60;;;10.27;;
51907;SDS011;39320;53.214;6.556;2023-04-08T12:30:21;11.82;;;10.63;;
51907;SDS011;39320;53.214;6.556;2023-04-08T12:32:47;10.70;;;9.35;;
51907;SDS011;39320;53.214;6.556;2023-04-08T12:35:13;11.18;;;10.10;;
51907;SDS011;39320;53.214;6.556;2023-04-08T12:37:39;12.63;;;10.35;;
51907;SDS011;39320;53.214;6.556;2023-04-08T12:40:05;11.35;;;10.25;;
51907;SDS011;39320;53.214;6.556;2023-04-08T12:42:31;12.00;;;10.82;;
51907;SDS011;39320;53.214;6.556;2023-04-08T12:44:57;11.25;;;10.15;;
51907;SDS011;39320;53.214;6.556;2023-04-08T12:47:23;12.05;;;10.88;;
51907;SDS011;39320;53.214;6.556;2023-04-08T12:49:54;10.70;;;9.70;;
51907;SDS011;39320;53.214;6.556;2023-04-08T12:52:20;11.82;;;10.57;;
51907;SDS011;39320;53.214;6.556;2023-04-08T12:54:45;11.52;;;10.35;;
51907;SDS011;39320;53.214;6.556;2023-04-08T12:57:11;10.18;;;9.27;;
51907;SDS011;39320;53.214;6.556;2023-04-08T12:59:37;10.38;;;9.27;;
51907;SDS011;39320;53.214;6.556;2023-04-08T13:02:04;10.05;;;9.05;;
51907;SDS011;39320;53.214;6.556;2023-04-08T13:04:30;10.63;;;7.63;;
51907;SDS011;39320;53.214;6.556;2023-04-08T13:06:55;8.90;;;8.00;;
51907;SDS011;39320;53.214;6.556;2023-04-08T13:09:21;9.25;;;8.35;;
51907;SDS011;39320;53.214;6.556;2023-04-08T13:11:47;8.55;;;7.70;;
51907;SDS011;39320;53.214;6.556;2023-04-08T13:14:13;10.07;;;9.18;;
51907;SDS011;39320;53.214;6.556;2023-04-08T13:16:39;8.77;;;7.90;;
51907;SDS011;39320;53.214;6.556;2023-04-08T13:19:05;9.38;;;8.45;;
51907;SDS011;39320;53.214;6.556;2023-04-08T13:21:33;8.60;;;7.70;;
51907;SDS011;39320;53.214;6.556;2023-04-08T13:23:59;8.30;;;7.50;;
51907;SDS011;39320;53.214;6.556;2023-04-08T13:26:25;8.55;;;7.65;;
51907;SDS011;39320;53.214;6.556;2023-04-08T13:28:50;9.90;;;8.90;;
51907;SDS011;39320;53.214;6.556;2023-04-08T13:31:17;9.05;;;8.10;;
51907;SDS011;39320;53.214;6.556;2023-04-08T13:33:42;8.57;;;7.78;;
51907;SDS011;39320;53.214;6.556;2023-04-08T13:36:08;8.25;;;7.45;;
51907;SDS011;39320;53.214;6.556;2023-04-08T13:38:36;8.25;;;7.45;;
51907;SDS011;39320;53.214;6.556;2023-04-08T13:41:02;9.07;;;8.27;;
51907;SDS011;39320;53.214;6.556;2023-04-08T13:43:28;9.38;;;8.68;;
51907;SDS011;39320;53.214;6.556;2023-04-08T13:45:54;10.05;;;9.13;;
51907;SDS011;39320;53.214;6.556;2023-04-08T13:48:21;9.02;;;8.05;;
51907;SDS011;39320;53.214;6.556;2023-04-08T13:50:50;9.55;;;8.75;;
51907;SDS011;39320;53.214;6.556;2023-04-08T13:53:15;12.18;;;9.68;;
51907;SDS011;39320;53.214;6.556;2023-04-08T13:55:41;10.38;;;9.32;;
51907;SDS011;39320;53.214;6.556;2023-04-08T13:58:07;10.43;;;9.43;;
51907;SDS011;39320;53.214;6.556;2023-04-08T14:00:33;10.00;;;9.05;;
51907;SDS011;39320;53.214;6.556;2023-04-08T14:02:59;10.18;;;9.25;;
51907;SDS011;39320;53.214;6.556;2023-04-08T14:05:25;9.65;;;8.82;;
51907;SDS011;39320;53.214;6.556;2023-04-08T14:07:51;10.43;;;9.32;;
51907;SDS011;39320;53.214;6.556;2023-04-08T14:10:17;11.32;;;10.27;;
51907;SDS011;39320;53.214;6.556;2023-04-08T14:12:43;9.98;;;9.00;;
51907;SDS011;39320;53.214;6.556;2023-04-08T14:15:10;11.98;;;9.90;;
51907;SDS011;39320;53.214;6.556;2023-04-08T14:17:36;11.30;;;10.32;;
51907;SDS011;39320;53.214;6.556;2023-04-08T14:20:02;10.48;;;9.57;;
51907;SDS011;39320;53.214;6.556;2023-04-08T14:22:30;10.90;;;9.85;;
51907;SDS011;39320;53.214;6.556;2023-04-08T14:24:56;10.43;;;9.48;;
51907;SDS011;39320;53.214;6.556;2023-04-08T14:27:22;10.98;;;10.02;;
51907;SDS011;39320;53.214;6.556;2023-04-08T14:29:47;10.70;;;9.70;;
51907;SDS011;39320;53.214;6.556;2023-04-08T14:32:13;10.55;;;9.65;;
51907;SDS011;39320;53.214;6.556;2023-04-08T14:34:39;10.02;;;9.23;;
51907;SDS011;39320;53.214;6.556;2023-04-08T14:37:05;10.80;;;9.85;;
51907;SDS011;39320;53.214;6.556;2023-04-08T14:39:31;10.65;;;9.70;;
51907;SDS011;39320;53.214;6.556;2023-04-08T14:41:57;11.13;;;9.85;;
51907;SDS011;39320;53.214;6.556;2023-04-08T14:44:23;10.98;;;9.98;;
51907;SDS011;39320;53.214;6.556;2023-04-08T14:46:48;11.68;;;10.48;;
51907;SDS011;39320;53.214;6.556;2023-04-08T14:49:14;11.20;;;10.30;;
51907;SDS011;39320;53.214;6.556;2023-04-08T14:51:40;11.38;;;10.38;;
51907;SDS011;39320;53.214;6.556;2023-04-08T14:54:06;11.65;;;10.45;;
51907;SDS011;39320;53.214;6.556;2023-04-08T14:56:32;11.18;;;10.20;;
51907;SDS011;39320;53.214;6.556;2023-04-08T14:58:58;11.35;;;10.27;;
51907;SDS011;39320;53.214;6.556;2023-04-08T15:01:24;12.20;;;11.20;;
51907;SDS011;39320;53.214;6.556;2023-04-08T15:03:50;11.68;;;10.68;;